createdAt,value
2023-10-23T00:00:57.284Z,100449.69
2023-10-23T00:05:59.627Z,100453.81
2023-10-23T00:11:01.806Z,100459.53
2023-10-23T00:16:04.152Z,100467.22
2023-10-23T00:21:06.333Z,100471.41
2023-10-23T00:26:09.124Z,100455.41
2023-10-23T00:31:11.351Z,100460.16
2023-10-23T00:36:13.486Z,100459.41
2023-10-23T00:41:15.648Z,100449.81
2023-10-23T00:46:21.711Z,100452.34
2023-10-23T00:51:24.013Z,100459.56
2023-10-23T00:56:27.319Z,100466.44
2023-10-23T01:01:31.055Z,100466.69
2023-10-23T01:06:33.397Z,100461.53
2023-10-23T01:11:35.639Z,100466.34
2023-10-23T01:16:37.923Z,100467.44
2023-10-23T01:21:40.136Z,100460.28
2023-10-23T01:26:42.325Z,100457.87
2023-10-23T01:31:44.528Z,100471.19
2023-10-23T01:36:46.815Z,100469.41
2023-10-23T01:41:49.018Z,100481.53
2023-10-23T01:46:51.205Z,100478.72
2023-10-23T01:51:53.398Z,100473.56
2023-10-23T01:56:55.675Z,100477.44
2023-10-23T02:01:57.901Z,100474.13
2023-10-23T02:07:00.040Z,100477.87
2023-10-23T02:12:02.761Z,100469.66
2023-10-23T02:17:05.289Z,100466.50
2023-10-23T02:22:07.403Z,100463.84
2023-10-23T02:27:09.509Z,100464.37
2023-10-23T02:32:11.743Z,100472.38
2023-10-23T02:37:13.989Z,100468.78
2023-10-23T02:42:16.131Z,100482.25
2023-10-23T02:47:18.302Z,100480.66
2023-10-23T02:52:20.540Z,100480.81
2023-10-23T02:57:22.916Z,100479.16
2023-10-23T03:02:27.825Z,100482.72
2023-10-23T03:07:30.032Z,100486.06
2023-10-23T03:12:32.239Z,100491.28
2023-10-23T03:17:34.493Z,100497.19
2023-10-23T03:22:36.709Z,100492.97
2023-10-23T03:27:38.969Z,100492.69
2023-10-23T03:32:41.094Z,100496.62
2023-10-23T03:37:43.286Z,100491.94
2023-10-23T03:42:45.475Z,100501.72
2023-10-23T03:47:47.902Z,100503.22
2023-10-23T03:52:50.042Z,100505.28
2023-10-23T03:57:52.538Z,100511.66
2023-10-23T04:02:54.828Z,100504.72
2023-10-23T04:07:57.192Z,100504.03
2023-10-23T04:12:59.380Z,100508.37
2023-10-23T04:18:01.625Z,100514.78
2023-10-23T04:23:04.575Z,100516.22
2023-10-23T04:28:06.720Z,100528.16
2023-10-23T04:33:08.940Z,100548.78
2023-10-23T04:38:11.116Z,100543.41
2023-10-23T04:43:13.604Z,100534.38
2023-10-23T04:48:15.737Z,100540.12
2023-10-23T04:53:17.859Z,100548.00
2023-10-23T04:58:20.150Z,100561.44
2023-10-23T05:03:22.562Z,100554.63
2023-10-23T05:08:24.787Z,100548.72
2023-10-23T05:13:26.929Z,100555.63
2023-10-23T05:18:29.075Z,100561.75
2023-10-23T05:23:31.310Z,100558.97
2023-10-23T05:28:33.522Z,100557.03
2023-10-23T05:33:36.145Z,100560.56
2023-10-23T05:38:39.280Z,100562.44
2023-10-23T05:43:41.482Z,100571.63
2023-10-23T05:48:43.664Z,100577.34
2023-10-23T05:53:46.755Z,100589.97
2023-10-23T05:58:49.994Z,100590.84
2023-10-23T06:03:54.237Z,100586.91
2023-10-23T06:08:56.543Z,100588.66
2023-10-23T06:13:58.783Z,100589.63
2023-10-23T06:19:01.167Z,100608.22
2023-10-23T06:24:04.886Z,100616.19
2023-10-23T06:29:07.091Z,100624.50
2023-10-23T06:34:09.246Z,100632.12
2023-10-23T06:39:13.863Z,100632.72
2023-10-23T06:44:16.573Z,100627.78
2023-10-23T06:49:18.700Z,100622.81
2023-10-23T06:54:22.808Z,100623.56
2023-10-23T06:59:25.184Z,100618.12
2023-10-23T07:04:28.183Z,100615.16
2023-10-23T07:09:32.284Z,100615.31
2023-10-23T07:14:34.458Z,100617.28
2023-10-23T07:19:36.726Z,100619.06
2023-10-23T07:24:38.847Z,100630.03
2023-10-23T07:29:41.156Z,100618.38
2023-10-23T07:34:43.461Z,100611.88
2023-10-23T07:39:49.229Z,100623.81
2023-10-23T07:44:51.535Z,100625.91
2023-10-23T07:49:53.701Z,100635.47
2023-10-23T07:54:55.882Z,100636.41
2023-10-23T07:59:58.050Z,100637.75
2023-10-23T08:05:00.851Z,100636.00
2023-10-23T08:10:03.768Z,100640.31
2023-10-23T08:15:06.411Z,100636.00
2023-10-23T08:20:09.163Z,100630.34
2023-10-23T08:25:11.357Z,100623.44
2023-10-23T08:30:14.000Z,100624.22
2023-10-23T08:35:16.692Z,100628.44
2023-10-23T08:40:19.100Z,100624.25
2023-10-23T08:45:21.613Z,100626.31
2023-10-23T08:50:24.737Z,100624.78
2023-10-23T08:55:30.073Z,100608.56
2023-10-23T09:00:32.278Z,100593.78
2023-10-23T09:05:34.657Z,100602.91
2023-10-23T09:10:59.859Z,100614.41
2023-10-23T09:16:05.277Z,100598.44
2023-10-23T09:21:08.342Z,100597.78
2023-10-23T09:26:11.056Z,100610.47
2023-10-23T09:31:14.409Z,100604.44
2023-10-23T09:36:17.779Z,100602.78
2023-10-23T09:41:19.936Z,100587.38
2023-10-23T09:46:29.354Z,100578.97
2023-10-23T09:51:40.055Z,100560.78
2023-10-23T09:56:51.687Z,100567.28
2023-10-23T10:01:58.826Z,100568.47
2023-10-23T10:07:15.739Z,100563.75
2023-10-23T10:12:19.857Z,100556.97
2023-10-23T10:17:24.312Z,100548.69
2023-10-23T10:22:31.145Z,100550.44
2023-10-23T10:27:34.146Z,100543.66
2023-10-23T10:34:21.213Z,100540.06
2023-10-23T10:38:00.726Z,100535.16
2023-10-23T10:43:07.243Z,100513.03
2023-10-23T10:48:11.350Z,100520.75
2023-10-23T10:53:15.658Z,100526.94
2023-10-23T10:58:20.077Z,100516.91
2023-10-23T11:03:22.369Z,100509.09
2023-10-23T11:08:24.697Z,100505.16
2023-10-23T11:13:27.053Z,100517.75
2023-10-23T11:18:29.836Z,100517.25
2023-10-23T11:23:32.346Z,100511.63
2023-10-23T11:28:34.516Z,100506.62
2023-10-23T11:33:37.237Z,100495.63
2023-10-23T11:38:39.534Z,100479.75
2023-10-23T11:43:41.760Z,100469.78
2023-10-23T11:48:44.047Z,100470.38
2023-10-23T11:53:47.579Z,100458.31
2023-10-23T11:58:49.765Z,100448.19
2023-10-23T12:03:52.530Z,100442.28
2023-10-23T12:08:56.716Z,100429.94
2023-10-23T12:14:02.252Z,100420.56
2023-10-23T12:19:05.624Z,100395.47
2023-10-23T12:24:08.441Z,100400.59
2023-10-23T12:29:13.845Z,100402.44
2023-10-23T12:34:18.010Z,100403.75
2023-10-23T12:39:20.585Z,100386.66
2023-10-23T12:44:22.838Z,100389.37
2023-10-23T12:49:26.338Z,100394.75
2023-10-23T12:54:28.598Z,100393.19
2023-10-23T12:59:34.371Z,100396.28
2023-10-23T13:04:36.940Z,100394.69
2023-10-23T13:09:39.458Z,100390.84
2023-10-23T13:14:41.753Z,100384.94
2023-10-23T13:19:43.923Z,100372.78
2023-10-23T13:24:46.119Z,100366.41
2023-10-23T13:29:48.888Z,100361.56
2023-10-23T13:34:50.989Z,100353.00
2023-10-23T13:39:53.628Z,100352.47
2023-10-23T13:44:55.928Z,100357.81
2023-10-23T13:49:59.566Z,100364.72
2023-10-23T13:55:02.035Z,100366.88
2023-10-23T14:00:04.900Z,100361.19
2023-10-23T14:05:07.975Z,100358.41
2023-10-23T14:10:10.529Z,100356.34
2023-10-23T14:15:12.724Z,100353.44
2023-10-23T14:20:15.014Z,100349.09
2023-10-23T14:25:17.308Z,100356.84
2023-10-23T14:30:19.858Z,100339.00
2023-10-23T14:35:21.984Z,100337.66
2023-10-23T14:40:24.208Z,100354.16
2023-10-23T14:45:26.476Z,100338.91
2023-10-23T14:50:28.881Z,100339.66
2023-10-23T14:55:31.088Z,100334.88
2023-10-23T15:00:35.700Z,100332.19
2023-10-23T15:05:37.984Z,100350.19
2023-10-23T15:10:40.177Z,100345.28
2023-10-23T15:15:42.673Z,100346.72
2023-10-23T15:20:45.502Z,100344.72
2023-10-23T15:25:49.449Z,100346.25
2023-10-23T15:30:54.689Z,100352.50
2023-10-23T15:35:58.560Z,100338.56
2023-10-23T15:41:06.732Z,100350.22
2023-10-23T15:46:16.868Z,100342.69
2023-10-23T15:51:19.170Z,100344.63
2023-10-23T15:56:21.526Z,100333.78
2023-10-23T16:01:23.842Z,100339.31
2023-10-23T16:06:26.099Z,100339.41
2023-10-23T16:11:29.853Z,100347.75
2023-10-23T16:16:35.134Z,100349.50
2023-10-23T16:21:37.387Z,100355.28
2023-10-23T16:26:39.563Z,100357.09
2023-10-23T16:31:41.758Z,100361.97
2023-10-23T16:36:43.923Z,100362.47
2023-10-23T16:41:48.356Z,100369.72
2023-10-23T16:46:53.829Z,100368.72
2023-10-23T16:51:56.157Z,100356.81
2023-10-23T16:56:58.399Z,100360.72
2023-10-23T17:02:00.733Z,100347.28
2023-10-23T17:07:04.413Z,100354.34
2023-10-23T17:12:06.921Z,100350.09
2023-10-23T17:17:10.025Z,100342.84
2023-10-23T17:22:12.323Z,100344.31
2023-10-23T17:27:14.498Z,100340.38
2023-10-23T17:32:16.616Z,100332.50
2023-10-23T17:37:18.806Z,100336.88
2023-10-23T17:42:21.073Z,100335.91
2023-10-23T17:47:25.210Z,100346.38
2023-10-23T17:52:27.761Z,100343.78
2023-10-23T17:57:30.809Z,100340.34
2023-10-23T18:02:33.008Z,100333.44
2023-10-23T18:07:35.300Z,100343.13
2023-10-23T18:12:38.696Z,100355.53
2023-10-23T18:17:41.402Z,100345.09
2023-10-23T18:22:44.149Z,100344.53
2023-10-23T18:27:46.502Z,100337.62
2023-10-23T18:32:48.909Z,100339.25
2023-10-23T18:37:51.316Z,100344.31
2023-10-23T18:42:58.041Z,100345.78
2023-10-23T18:48:03.485Z,100343.81
2023-10-23T18:53:06.530Z,100333.13
2023-10-23T18:58:11.496Z,100335.00
2023-10-23T19:03:19.972Z,100352.03
2023-10-23T19:08:23.508Z,100349.88
2023-10-23T19:13:26.138Z,100340.91
2023-10-23T19:18:31.001Z,100340.94
2023-10-23T19:23:33.660Z,100337.78
2023-10-23T19:28:36.732Z,100332.53
2023-10-23T19:33:40.080Z,100332.53
2023-10-23T19:38:43.497Z,100327.25
2023-10-23T19:43:53.341Z,100330.34
2023-10-23T19:48:55.871Z,100327.09
2023-10-23T19:53:58.339Z,100324.63
2023-10-23T19:59:00.942Z,100311.03
2023-10-23T20:04:04.766Z,100316.25
2023-10-23T20:09:06.998Z,100305.59
2023-10-23T20:14:13.934Z,100317.34
2023-10-23T20:19:16.527Z,100299.13
2023-10-23T20:24:18.766Z,100301.41
2023-10-23T20:29:21.018Z,100297.84
2023-10-23T20:34:23.279Z,100308.78
2023-10-23T20:39:26.086Z,100315.22
2023-10-23T20:44:28.745Z,100306.44
2023-10-23T20:49:31.127Z,100293.06
2023-10-23T20:54:33.270Z,100304.03
2023-10-23T20:59:35.361Z,100295.75
2023-10-23T21:04:37.576Z,100294.91
2023-10-23T21:09:40.238Z,100290.16
2023-10-23T21:14:47.699Z,100289.78
2023-10-23T21:19:50.048Z,100288.63
2023-10-23T21:24:52.309Z,100280.69
2023-10-23T21:29:54.923Z,100283.44
2023-10-23T21:34:57.111Z,100271.78
2023-10-23T21:39:59.275Z,100273.00
2023-10-23T21:45:01.462Z,100260.03
2023-10-23T21:50:04.111Z,100260.53
2023-10-23T21:55:13.645Z,100258.59
2023-10-23T22:00:30.792Z,100259.03
2023-10-23T22:05:33.291Z,100250.78
2023-10-23T22:10:35.920Z,100247.69
2023-10-23T22:15:38.128Z,100242.38
2023-10-23T22:20:40.272Z,100242.56
2023-10-23T22:25:42.512Z,100233.19
2023-10-23T22:30:44.665Z,100226.28
2023-10-23T22:35:46.921Z,100231.88
2023-10-23T22:40:49.870Z,100227.00
2023-10-23T22:46:02.417Z,100215.38
2023-10-23T22:51:06.483Z,100218.47
2023-10-23T22:56:10.316Z,100215.22
2023-10-23T23:01:12.769Z,100220.91
2023-10-23T23:06:19.906Z,100220.88
2023-10-23T23:11:22.440Z,100201.91
2023-10-23T23:16:25.940Z,100199.84
2023-10-23T23:21:30.833Z,100193.37
2023-10-23T23:26:34.209Z,100190.13
2023-10-23T23:31:36.471Z,100185.34
2023-10-23T23:36:38.736Z,100180.09
2023-10-23T23:41:40.823Z,100177.62
2023-10-23T23:46:43.020Z,100175.13
2023-10-23T23:51:45.219Z,100178.72
2023-10-23T23:56:47.340Z,100178.38
